»·PEaware :: ASA376 KSEA-KSFO

ASA376 :: KSEA-KSFO

FLIGHT INFORMATION

Flight Status: Arrived
Operator:
Alaska Airlines
More flights by this operator :: More flights under this callsign
Pilot: Cullen C. (7783)
Aircraft: BOEING 737-800
(B738)
More flights by this aircraft type
Origin: KSEA Seattle-Tacoma Intl
United States
Destination: KSFO San Francisco Intl
United States
More flights between these airports :: More routes between these airports
Route: +HAROB6 ERAVE Q1 ETCHY MLBEC BDEGA2
File this flight plan on PilotEdge
Remarks:
Altitude:
(Current/Filed)
35,000ft
Speed:
(Current/Filed)
460kts
Departed: 08-Jan-18 06:50 PM
Arrived: 08-Jan-18 08:42 PM
Distance/Time
Traveled:
590nm/1:51
Distance/Time
To Go:
Arrived

Flight Plot

Page will automatically refresh every two minutes.

Flight plan parsing failed; only flown route is shown


Map Options




Map Legend


Flown Route
Filed Route
Departure Airport
Arrival Airport
Navaid (VOR, NDB)
Fix

Horizontal Profiles

Position Reports

Time Latitude Longitude Heading Altitude Ground
Speed
08-Jan-18 18:19 47.438464 -122.298324 81 359ft 0kts
08-Jan-18 18:20 47.438464 -122.298324 81 359ft 0kts
08-Jan-18 18:21 47.438464 -122.298324 81 359ft 0kts
08-Jan-18 18:22 47.438464 -122.298324 81 359ft 0kts
08-Jan-18 18:23 47.438464 -122.298324 81 359ft 0kts
08-Jan-18 18:24 47.438464 -122.298324 81 359ft 0kts
08-Jan-18 18:25 47.438464 -122.298324 81 359ft 0kts
08-Jan-18 18:26 47.438464 -122.298324 81 359ft 0kts
08-Jan-18 18:27 47.438464 -122.298324 81 359ft 0kts
08-Jan-18 18:28 47.438464 -122.298324 81 359ft 0kts
08-Jan-18 18:29 47.438464 -122.298324 81 359ft 0kts
08-Jan-18 18:30 47.438464 -122.298324 81 359ft 0kts
08-Jan-18 18:31 47.438464 -122.298324 81 359ft 0kts
08-Jan-18 18:32 47.438464 -122.298324 81 359ft 0kts
08-Jan-18 18:33 47.438464 -122.298324 81 359ft 0kts
08-Jan-18 18:34 47.438446 -122.298495 81 359ft 2kts
08-Jan-18 18:35 47.438353 -122.299370 81 359ft 2kts
08-Jan-18 18:36 47.437954 -122.299907 16 359ft 0kts
08-Jan-18 18:39 47.438463 -122.298324 81 359ft 0kts
08-Jan-18 18:40 47.438463 -122.298324 81 359ft 0kts
08-Jan-18 18:41 47.438463 -122.298324 81 359ft 0kts
08-Jan-18 18:42 47.438463 -122.298324 81 359ft 0kts
08-Jan-18 18:43 47.438463 -122.298324 81 359ft 0kts
08-Jan-18 18:44 47.438464 -122.298324 81 359ft 0kts
08-Jan-18 18:45 47.438414 -122.298801 81 359ft 2kts
08-Jan-18 18:46 47.438287 -122.299665 50 359ft 2kts
08-Jan-18 18:47 47.437939 -122.299909 17 359ft 0kts
08-Jan-18 18:48 47.437939 -122.299909 17 359ft 0kts
08-Jan-18 18:49 47.438266 -122.299761 17 358ft 6kts
08-Jan-18 18:50 47.440455 -122.301630 273 358ft 11kts
08-Jan-18 18:51 47.439991 -122.306080 304 359ft 12kts
08-Jan-18 18:52 47.444587 -122.306332 0 358ft 21kts
08-Jan-18 18:53 47.451469 -122.306242 0 358ft 25kts
08-Jan-18 18:54 47.457525 -122.306199 0 358ft 18kts
08-Jan-18 18:55 47.462127 -122.306134 0 358ft 16kts
08-Jan-18 18:56 47.452321 -122.307831 180 359ft 136kts
08-Jan-18 18:57 47.404837 -122.309079 177 2393ft 193kts
08-Jan-18 18:58 47.343130 -122.313623 204 3864ft 247kts
08-Jan-18 18:59 47.311460 -122.400973 261 6698ft 260kts
08-Jan-18 19:00 47.308849 -122.505817 269 9811ft 263kts
08-Jan-18 19:01 47.311818 -122.621917 267 11911ft 304kts
08-Jan-18 19:02 47.315136 -122.743434 266 14681ft 315kts
08-Jan-18 19:03 47.291030 -122.863840 244 17353ft 314kts
08-Jan-18 19:04 47.258388 -122.984740 244 19871ft 325kts
08-Jan-18 19:05 47.203319 -123.084726 215 22216ft 326kts
08-Jan-18 19:06 47.129772 -123.163922 215 24475ft 333kts
08-Jan-18 19:07 47.054831 -123.244857 216 26701ft 336kts
08-Jan-18 19:08 46.980854 -123.324832 216 28942ft 329kts
08-Jan-18 19:09 46.905376 -123.396704 197 30652ft 331kts
08-Jan-18 19:10 46.813965 -123.398697 185 32262ft 336kts
08-Jan-18 19:11 46.721763 -123.395966 185 33778ft 331kts
08-Jan-18 19:12 46.630100 -123.393237 185 34778ft 335kts
08-Jan-18 19:13 46.534014 -123.390396 184 34797ft 361kts
08-Jan-18 19:14 46.430407 -123.387265 184 34794ft 389kts
08-Jan-18 19:15 46.321074 -123.383910 184 34788ft 394kts
08-Jan-18 19:16 46.211861 -123.380609 184 34799ft 396kts
08-Jan-18 19:17 46.100079 -123.377238 184 34795ft 404kts
08-Jan-18 19:18 45.988499 -123.373862 184 34795ft 404kts
08-Jan-18 19:19 45.877896 -123.370522 184 34806ft 403kts
08-Jan-18 19:20 45.766682 -123.367159 184 34792ft 404kts
08-Jan-18 19:21 45.655406 -123.363794 184 34788ft 404kts
08-Jan-18 19:22 45.544269 -123.360446 184 34787ft 404kts
08-Jan-18 19:23 45.432210 -123.357069 184 34786ft 403kts
08-Jan-18 19:24 45.320050 -123.353690 184 34784ft 404kts
08-Jan-18 19:25 45.208272 -123.350316 183 34782ft 404kts
08-Jan-18 19:26 45.096157 -123.346936 184 34780ft 404kts
08-Jan-18 19:27 45.002863 -123.344125 183 34779ft 405kts
08-Jan-18 19:28 44.872845 -123.340194 183 34793ft 406kts
08-Jan-18 19:29 44.779805 -123.337383 183 34791ft 406kts
08-Jan-18 19:30 44.646312 -123.333365 183 34788ft 418kts
08-Jan-18 19:31 44.549651 -123.330443 183 34792ft 420kts
08-Jan-18 19:32 44.419310 -123.325760 183 34785ft 423kts
08-Jan-18 19:33 44.321654 -123.321915 183 34782ft 423kts
08-Jan-18 19:34 44.184777 -123.316591 183 34775ft 428kts
08-Jan-18 19:35 44.085459 -123.312715 183 34763ft 429kts
08-Jan-18 19:36 43.967273 -123.308112 183 34761ft 429kts
08-Jan-18 19:37 43.862609 -123.304037 183 34775ft 429kts
08-Jan-18 19:38 43.754544 -123.299828 183 34769ft 429kts
08-Jan-18 19:39 43.636201 -123.295196 183 34756ft 431kts
08-Jan-18 19:40 43.522874 -123.290803 183 34750ft 431kts
08-Jan-18 19:41 43.404257 -123.286190 183 34749ft 431kts
08-Jan-18 19:42 43.286804 -123.281612 183 34748ft 431kts
08-Jan-18 19:43 43.167240 -123.276960 183 34746ft 431kts
08-Jan-18 19:44 43.048436 -123.272333 183 34745ft 431kts
08-Jan-18 19:45 42.930084 -123.267743 182 34742ft 430kts
08-Jan-18 19:46 42.813094 -123.263172 182 34756ft 430kts
08-Jan-18 19:47 42.694439 -123.258544 182 34754ft 430kts
08-Jan-18 19:48 42.575508 -123.253910 182 34752ft 430kts
08-Jan-18 19:49 42.456280 -123.249299 182 34750ft 430kts
08-Jan-18 19:50 42.337113 -123.244937 182 34745ft 426kts
08-Jan-18 19:51 42.220981 -123.240694 182 34748ft 418kts
08-Jan-18 19:52 42.105961 -123.236474 182 34741ft 405kts
08-Jan-18 19:53 41.993464 -123.232390 182 34745ft 407kts
08-Jan-18 19:54 41.882700 -123.228342 182 34757ft 407kts
08-Jan-18 19:55 41.770291 -123.224235 182 34772ft 407kts
08-Jan-18 19:56 41.657407 -123.220114 182 34765ft 407kts
08-Jan-18 19:57 41.544740 -123.216129 182 34754ft 407kts
08-Jan-18 19:58 41.432126 -123.212241 182 34748ft 407kts
08-Jan-18 19:59 41.319591 -123.208431 182 34748ft 407kts
08-Jan-18 20:00 41.206822 -123.205663 182 34747ft 407kts
08-Jan-18 20:01 41.095876 -123.202909 182 34749ft 406kts
08-Jan-18 20:02 40.983256 -123.200122 181 34757ft 403kts
08-Jan-18 20:03 40.874970 -123.197414 181 34775ft 403kts
08-Jan-18 20:04 40.763431 -123.194619 181 34773ft 402kts
08-Jan-18 20:05 40.652183 -123.191848 181 34775ft 402kts
08-Jan-18 20:06 40.540336 -123.189064 181 34777ft 403kts
08-Jan-18 20:07 40.428472 -123.186283 181 34774ft 402kts
08-Jan-18 20:08 40.316726 -123.183506 181 34778ft 403kts
08-Jan-18 20:09 40.205378 -123.180725 181 34775ft 403kts
08-Jan-18 20:10 40.093857 -123.177952 181 34774ft 403kts
08-Jan-18 20:11 39.982215 -123.175172 181 34756ft 403kts
08-Jan-18 20:12 39.873644 -123.170702 180 34772ft 403kts
08-Jan-18 20:13 39.762772 -123.159834 173 34775ft 406kts
08-Jan-18 20:14 39.651992 -123.134565 173 34761ft 406kts
08-Jan-18 20:15 39.541363 -123.109345 173 34763ft 406kts
08-Jan-18 20:16 39.430323 -123.084110 173 34761ft 406kts
08-Jan-18 20:17 39.319282 -123.058947 173 34758ft 407kts
08-Jan-18 20:18 39.209178 -123.034048 173 34753ft 396kts
08-Jan-18 20:19 39.099153 -123.009305 173 34766ft 415kts
08-Jan-18 20:20 38.985179 -122.983698 173 34148ft 417kts
08-Jan-18 20:21 38.876129 -122.971571 194 31406ft 386kts
08-Jan-18 20:22 38.778353 -123.017819 200 28573ft 390kts
08-Jan-18 20:23 38.675093 -123.045334 162 27186ft 400kts
08-Jan-18 20:24 38.613942 -122.922694 127 25752ft 434kts
08-Jan-18 20:25 38.524048 -122.854531 170 25585ft 363kts
08-Jan-18 20:26 38.426883 -122.826650 170 24323ft 357kts
08-Jan-18 20:27 38.333488 -122.799359 170 22585ft 334kts
08-Jan-18 20:28 38.244353 -122.773257 170 20937ft 328kts
08-Jan-18 20:29 38.156903 -122.747798 169 19295ft 324kts
08-Jan-18 20:30 38.072059 -122.719942 159 18063ft 312kts
08-Jan-18 20:31 37.988249 -122.695345 171 16480ft 307kts
08-Jan-18 20:32 37.911260 -122.676056 168 15046ft 300kts
08-Jan-18 20:33 37.844059 -122.614899 144 13522ft 305kts
08-Jan-18 20:34 37.781067 -122.547735 144 12061ft 288kts
08-Jan-18 20:35 37.723663 -122.486920 143 11017ft 259kts
08-Jan-18 20:36 37.669611 -122.429477 142 11016ft 264kts
08-Jan-18 20:37 37.613157 -122.369580 145 11004ft 259kts
08-Jan-18 20:38 37.554870 -122.338315 153 10240ft 225kts
08-Jan-18 20:39 37.500107 -122.302241 153 8919ft 223kts
08-Jan-18 20:40 37.462117 -122.246139 104 7405ft 230kts
08-Jan-18 20:41 37.451402 -122.168209 103 5764ft 224kts
08-Jan-18 20:42 37.469573 -122.103468 8 4667ft 242kts
08-Jan-18 20:43 37.525188 -122.148856 301 3641ft 238kts
08-Jan-18 20:44 37.554877 -122.217695 299 2506ft 209kts
08-Jan-18 20:45 37.580640 -122.278856 299 1436ft 178kts
08-Jan-18 20:46 37.600930 -122.327225 299 480ft 151kts
08-Jan-18 20:47 37.619355 -122.370957 298 19ft 80kts
08-Jan-18 20:48 37.621126 -122.383227 193 19ft 5kts
08-Jan-18 20:49 37.620160 -122.383638 212 19ft 7kts
08-Jan-18 20:50 37.619755 -122.383997 215 19ft 0kts
08-Jan-18 20:51 37.619755 -122.383997 215 19ft 0kts
08-Jan-18 20:52 37.619755 -122.383997 215 19ft 0kts

Navigation Log

Ident Type
Flight plan parsing failed, navigation log unavailable